Time;durP1;ratioP1;P1;durP2;ratioP2;P2;SDS_P1;SDS_P2;PMS_P1;PMS_P2;Temp;Humidity;BMP_temperature;BMP_pressure;BME280_temperature;BME280_humidity;BME280_pressure;Samples;Min_cycle;Max_cycle;Signal;HPM_P1;HPM_P2
2024/01/22 00:00:37;;;;;;;1.50;1.40;;;4.90;34.30;;;;;;5072836;28;20200;-48
2024/01/22 00:03:02;;;;;;;2.20;1.27;;;4.80;34.30;;;;;;5073158;28;20223;-47
2024/01/22 00:05:28;;;;;;;0.87;0.57;;;4.90;34.40;;;;;;5073010;28;20173;-46
2024/01/22 00:07:54;;;;;;;1.10;0.60;;;4.90;34.50;;;;;;5072998;28;20438;-43
2024/01/22 00:10:20;;;;;;;1.60;1.50;;;4.90;34.60;;;;;;5072681;28;20224;-46
2024/01/22 00:12:45;;;;;;;2.40;2.20;;;4.90;34.70;;;;;;5086485;28;20210;-45
2024/01/22 00:15:11;;;;;;;1.70;1.60;;;5.00;34.70;;;;;;5075355;28;20169;-45
2024/01/22 00:17:37;;;;;;;1.00;0.80;;;5.00;34.80;;;;;;5072912;28;20175;-50
2024/01/22 00:20:03;;;;;;;1.97;1.10;;;5.00;34.80;;;;;;5073282;28;20465;-44
2024/01/22 00:22:29;;;;;;;1.08;0.95;;;5.00;34.80;;;;;;5072945;28;20979;-44
2024/01/22 00:24:54;;;;;;;1.53;1.30;;;5.10;34.70;;;;;;5072708;28;20180;-47
2024/01/22 00:27:20;;;;;;;1.03;0.93;;;5.10;34.80;;;;;;5072819;28;20181;-46
2024/01/22 00:29:46;;;;;;;3.70;3.40;;;5.10;34.60;;;;;;5073420;28;20197;-46
2024/01/22 00:32:12;;;;;;;2.93;2.70;;;5.10;34.60;;;;;;5072193;28;20700;-48
2024/01/22 00:34:38;;;;;;;1.57;1.17;;;5.20;34.50;;;;;;5073250;28;20172;-50
2024/01/22 00:37:04;;;;;;;2.13;1.93;;;5.10;34.50;;;;;;5074244;28;20419;-46
2024/01/22 00:39:29;;;;;;;8.60;2.25;;;5.10;34.70;;;;;;5072967;28;20411;-44
2024/01/22 00:41:56;;;;;;;1.50;1.10;;;5.00;34.80;;;;;;5072119;28;20575;-45
2024/01/22 00:44:22;;;;;;;3.75;1.10;;;5.00;34.90;;;;;;5072144;28;20181;-48
2024/01/22 00:46:48;;;;;;;1.77;1.67;;;5.00;34.80;;;;;;5072310;28;20176;-45
2024/01/22 00:49:14;;;;;;;14.40;1.50;;;5.00;34.70;;;;;;5072031;28;20164;-46
2024/01/22 00:51:40;;;;;;;3.53;3.22;;;5.00;34.50;;;;;;5071949;28;20551;-50
2024/01/22 00:54:06;;;;;;;0.80;0.50;;;5.00;34.50;;;;;;5072283;28;20176;-48
2024/01/22 00:56:33;;;;;;;2.07;1.43;;;5.10;34.40;;;;;;5072193;28;20260;-46
2024/01/22 00:58:59;;;;;;;3.17;2.97;;;5.00;34.20;;;;;;5072178;28;20177;-44
2024/01/22 01:01:25;;;;;;;3.85;1.15;;;5.00;34.30;;;;;;5071750;28;20204;-49
2024/01/22 01:03:50;;;;;;;3.57;3.23;;;5.00;34.20;;;;;;5071996;28;20222;-50
2024/01/22 01:06:16;;;;;;;1.27;0.97;;;5.00;34.00;;;;;;5072313;28;20414;-45
2024/01/22 01:08:42;;;;;;;1.93;1.00;;;5.00;33.90;;;;;;5072238;28;20301;-45
2024/01/22 01:11:08;;;;;;;2.43;1.60;;;5.10;33.80;;;;;;5071721;28;20859;-50
2024/01/22 01:13:33;;;;;;;2.30;2.20;;;5.10;33.70;;;;;;5071857;28;20161;-48
2024/01/22 01:15:59;;;;;;;3.77;2.60;;;5.20;33.60;;;;;;5071988;28;20197;-43
2024/01/22 01:18:25;;;;;;;1.27;1.00;;;5.20;33.60;;;;;;5071803;28;20168;-43
2024/01/22 01:20:51;;;;;;;4.47;1.30;;;5.20;33.60;;;;;;5071598;28;20431;-48
2024/01/22 01:23:16;;;;;;;2.90;1.90;;;5.20;33.60;;;;;;5071956;28;20444;-49
2024/01/22 01:25:42;;;;;;;2.07;1.80;;;5.30;33.40;;;;;;5071791;28;20169;-47
2024/01/22 01:28:08;;;;;;;1.77;1.67;;;5.20;33.70;;;;;;5071002;28;20243;-46
2024/01/22 01:30:34;;;;;;;2.40;0.90;;;5.20;33.70;;;;;;5071507;28;20617;-45
2024/01/22 01:32:59;;;;;;;1.90;1.80;;;5.30;33.70;;;;;;5071780;28;20437;-47
2024/01/22 01:35:25;;;;;;;1.63;1.03;;;5.30;33.70;;;;;;5071779;28;20535;-47
2024/01/22 01:37:52;;;;;;;3.92;1.52;;;5.40;33.60;;;;;;5071786;28;20165;-45
2024/01/22 01:40:18;;;;;;;3.47;1.92;;;5.40;33.60;;;;;;5071375;28;20196;-45
2024/01/22 01:42:44;;;;;;;4.20;2.63;;;5.40;33.50;;;;;;5070309;28;20183;-50
2024/01/22 01:45:14;;;;;;;2.17;1.23;;;5.40;33.50;;;;;;5071772;28;20177;-44
2024/01/22 01:47:42;;;;;;;7.78;1.20;;;5.40;33.40;;;;;;5084040;28;20222;-45
2024/01/22 01:50:09;;;;;;;0.90;0.63;;;5.40;33.40;;;;;;5090409;28;20199;-45
2024/01/22 01:52:36;;;;;;;1.33;1.20;;;5.40;33.40;;;;;;5091489;28;20229;-45
2024/01/22 01:55:02;;;;;;;1.08;0.98;;;5.50;33.30;;;;;;5091980;28;20721;-45
2024/01/22 01:57:29;;;;;;;2.03;1.15;;;5.40;33.60;;;;;;5091632;28;20251;-48
2024/01/22 01:59:57;;;;;;;1.20;1.02;;;5.40;33.60;;;;;;5085592;28;20193;-47
2024/01/22 02:02:23;;;;;;;1.17;0.95;;;5.30;34.00;;;;;;5071156;28;20249;-48
2024/01/22 02:04:49;;;;;;;1.00;0.77;;;5.30;34.20;;;;;;5071684;28;20252;-49
2024/01/22 02:07:15;;;;;;;4.13;1.70;;;5.40;33.80;;;;;;5072580;28;20177;-43
2024/01/22 02:09:47;;;;;;;1.35;0.50;;;5.40;33.70;;;;;;5073197;28;20455;-46
2024/01/22 02:12:14;;;;;;;1.20;0.70;;;5.40;33.90;;;;;;5072471;28;20271;-46
2024/01/22 02:14:40;;;;;;;2.55;1.55;;;5.40;33.90;;;;;;5071339;28;20281;-43
2024/01/22 02:17:06;;;;;;;1.30;1.20;;;5.40;33.90;;;;;;5071388;28;20264;-48
2024/01/22 02:19:32;;;;;;;1.83;1.13;;;5.50;33.90;;;;;;5071436;28;20169;-44
2024/01/22 02:21:58;;;;;;;1.07;0.97;;;5.60;33.80;;;;;;5085970;28;20529;-45
2024/01/22 02:24:23;;;;;;;1.60;1.40;;;5.60;33.70;;;;;;5073221;28;20180;-47
2024/01/22 02:26:50;;;;;;;1.30;1.20;;;5.70;33.60;;;;;;5071327;28;20169;-47
2024/01/22 02:29:16;;;;;;;1.00;0.90;;;5.70;33.70;;;;;;5071145;28;20223;-44
2024/01/22 02:31:42;;;;;;;2.73;1.67;;;5.70;34.40;;;;;;5070926;28;20204;-47
2024/01/22 02:34:08;;;;;;;1.60;1.20;;;5.70;33.80;;;;;;5071248;28;20419;-45
2024/01/22 02:36:34;;;;;;;2.50;2.30;;;5.70;34.20;;;;;;5071181;28;20407;-44
2024/01/22 02:38:59;;;;;;;1.70;1.47;;;5.60;34.00;;;;;;5073355;28;20411;-50
2024/01/22 02:41:25;;;;;;;1.13;0.93;;;5.60;34.30;;;;;;5073025;28;20212;-45
2024/01/22 02:43:51;;;;;;;1.80;1.50;;;5.60;34.20;;;;;;5074541;28;20172;-44
2024/01/22 02:46:17;;;;;;;1.53;1.03;;;5.70;34.30;;;;;;5074555;28;20215;-49
2024/01/22 02:48:42;;;;;;;2.40;1.70;;;5.70;34.30;;;;;;5074769;28;20539;-47
2024/01/22 02:51:11;;;;;;;0.90;0.50;;;5.80;34.10;;;;;;5074226;28;20283;-45
2024/01/22 02:53:38;;;;;;;1.58;1.02;;;5.90;34.10;;;;;;5074448;28;20211;-50
2024/01/22 02:56:04;;;;;;;1.63;1.52;;;5.90;34.00;;;;;;5074475;28;20177;-44
2024/01/22 02:58:31;;;;;;;1.33;1.00;;;5.90;33.80;;;;;;5074272;28;20165;-47
2024/01/22 03:00:57;;;;;;;3.95;2.75;;;5.90;33.80;;;;;;5074032;28;20212;-45
2024/01/22 03:03:23;;;;;;;2.65;1.33;;;6.00;33.80;;;;;;5072912;28;20184;-43
2024/01/22 03:05:49;;;;;;;4.10;2.40;;;6.00;33.60;;;;;;5074284;28;20174;-45
2024/01/22 03:08:15;;;;;;;2.20;1.20;;;6.00;33.80;;;;;;5074176;28;20511;-46
2024/01/22 03:10:41;;;;;;;3.37;3.07;;;6.00;33.60;;;;;;5073849;28;20551;-44
2024/01/22 03:13:06;;;;;;;1.00;0.77;;;6.00;33.60;;;;;;5074066;28;20180;-47
2024/01/22 03:15:32;;;;;;;1.27;1.17;;;6.00;33.60;;;;;;5074133;28;20177;-48
2024/01/22 03:17:58;;;;;;;1.20;1.10;;;6.00;33.60;;;;;;5074058;28;20177;-46
2024/01/22 03:20:23;;;;;;;2.60;2.00;;;6.10;33.60;;;;;;5073726;28;20666;-46
2024/01/22 03:22:49;;;;;;;1.40;1.10;;;6.10;33.60;;;;;;5073909;28;20264;-43
2024/01/22 03:25:15;;;;;;;4.10;2.30;;;6.10;33.70;;;;;;5073765;28;20177;-44
2024/01/22 03:27:41;;;;;;;2.60;2.40;;;6.10;33.60;;;;;;5073950;28;20526;-49
2024/01/22 03:30:07;;;;;;;1.90;1.20;;;6.10;33.80;;;;;;5073760;28;20630;-47
2024/01/22 03:32:33;;;;;;;2.25;1.27;;;6.10;33.60;;;;;;5073477;28;20236;-44
2024/01/22 03:34:59;;;;;;;2.17;0.87;;;6.00;33.60;;;;;;5073838;28;20197;-49
2024/01/22 03:37:25;;;;;;;2.07;1.87;;;6.10;33.60;;;;;;5073684;28;20781;-44
2024/01/22 03:39:50;;;;;;;4.13;2.43;;;6.10;33.60;;;;;;5073923;28;20400;-45
2024/01/22 03:42:17;;;;;;;3.30;2.73;;;6.10;33.40;;;;;;5073566;28;20220;-50
2024/01/22 03:44:43;;;;;;;2.17;1.45;;;6.10;33.40;;;;;;5073765;28;20653;-48
2024/01/22 03:47:09;;;;;;;1.60;1.50;;;6.10;33.50;;;;;;5073659;28;20238;-46
2024/01/22 03:49:34;;;;;;;1.83;1.63;;;6.10;33.50;;;;;;5072949;28;20419;-50
2024/01/22 03:52:00;;;;;;;1.83;1.40;;;6.10;33.60;;;;;;5073948;28;20563;-44
2024/01/22 03:54:26;;;;;;;3.53;1.83;;;6.10;33.60;;;;;;5073262;28;20663;-44
2024/01/22 03:56:51;;;;;;;0.90;0.70;;;6.00;33.60;;;;;;5073906;28;20226;-50
2024/01/22 03:59:18;;;;;;;2.30;1.73;;;6.00;33.90;;;;;;5073968;28;20181;-48
2024/01/22 04:01:44;;;;;;;1.05;0.95;;;5.90;34.30;;;;;;5074038;28;20218;-44
2024/01/22 04:04:12;;;;;;;3.57;1.50;;;5.90;34.20;;;;;;5073072;28;20184;-42
2024/01/22 04:06:37;;;;;;;1.00;0.90;;;6.10;34.10;;;;;;5073021;28;20647;-47
2024/01/22 04:09:03;;;;;;;2.27;1.67;;;6.10;34.10;;;;;;5073036;28;20216;-42
2024/01/22 04:11:29;;;;;;;1.00;0.83;;;6.20;34.10;;;;;;5072635;28;20302;-51
2024/01/22 04:13:55;;;;;;;1.60;1.20;;;6.20;34.00;;;;;;5072981;28;20177;-45
2024/01/22 04:16:20;;;;;;;2.07;1.97;;;6.20;34.10;;;;;;5071540;28;20184;-46
2024/01/22 04:18:46;;;;;;;2.70;1.43;;;6.30;34.00;;;;;;5072937;28;20173;-45
2024/01/22 04:21:12;;;;;;;1.73;1.53;;;6.30;33.80;;;;;;5072562;28;20201;-44
2024/01/22 04:23:38;;;;;;;2.10;2.00;;;6.30;34.00;;;;;;5071375;28;20692;-42
2024/01/22 04:26:05;;;;;;;1.17;1.07;;;6.30;34.00;;;;;;5072747;28;20438;-50
2024/01/22 04:28:31;;;;;;;1.55;1.45;;;6.20;34.00;;;;;;5072728;28;20426;-47
2024/01/22 04:30:57;;;;;;;1.70;1.60;;;6.20;34.00;;;;;;5072335;28;20223;-43
2024/01/22 04:33:22;;;;;;;2.10;1.43;;;6.20;34.10;;;;;;5072490;28;20170;-46
2024/01/22 04:35:49;;;;;;;4.40;2.57;;;6.20;34.10;;;;;;5072539;28;20165;-48
2024/01/22 04:38:15;;;;;;;3.17;2.83;;;6.10;33.70;;;;;;5072417;28;20536;-45
2024/01/22 04:40:41;;;;;;;4.80;1.73;;;6.00;33.80;;;;;;5071969;28;20277;-45
2024/01/22 04:43:07;;;;;;;0.90;0.67;;;6.10;34.00;;;;;;5072428;28;20582;-49
2024/01/22 04:45:33;;;;;;;0.90;0.73;;;6.00;33.80;;;;;;5072246;28;20180;-42
2024/01/22 04:47:59;;;;;;;2.35;2.15;;;6.00;33.90;;;;;;5072287;28;20422;-44
2024/01/22 04:50:25;;;;;;;3.22;1.50;;;6.00;33.90;;;;;;5073439;28;20284;-48
2024/01/22 04:52:51;;;;;;;2.60;1.37;;;6.00;33.70;;;;;;5087354;28;20307;-45
2024/01/22 04:55:16;;;;;;;1.10;0.80;;;6.00;34.50;;;;;;5072100;28;20173;-47
2024/01/22 04:57:42;;;;;;;2.47;2.00;;;6.00;34.30;;;;;;5072134;28;20232;-47
2024/01/22 05:00:08;;;;;;;2.10;1.90;;;6.00;34.30;;;;;;5072060;28;20231;-44
2024/01/22 05:02:34;;;;;;;2.78;1.83;;;6.00;34.10;;;;;;5071568;28;20216;-47
2024/01/22 05:05:01;;;;;;;2.90;1.63;;;6.10;34.50;;;;;;5071985;28;20538;-49
2024/01/22 05:07:27;;;;;;;1.20;1.00;;;6.10;34.50;;;;;;5072474;28;20177;-42
2024/01/22 05:10:02;;;;;;;1.73;0.93;;;6.00;34.40;;;;;;5086727;28;20678;-48
2024/01/22 05:12:28;;;;;;;4.50;1.65;;;6.00;34.40;;;;;;5071885;28;20204;-49
2024/01/22 05:14:53;;;;;;;6.40;1.50;;;6.00;34.60;;;;;;5071891;28;20250;-43
2024/01/22 05:17:19;;;;;;;6.57;2.23;;;6.10;34.90;;;;;;5071972;28;20184;-44
2024/01/22 05:19:45;;;;;;;1.37;1.00;;;6.10;34.90;;;;;;5071982;28;20414;-46
2024/01/22 05:22:11;;;;;;;4.47;1.80;;;6.10;34.90;;;;;;5071603;28;20944;-46
2024/01/22 05:24:37;;;;;;;1.73;1.63;;;6.20;34.90;;;;;;5071723;28;20200;-43
2024/01/22 05:27:04;;;;;;;1.55;1.45;;;6.20;35.00;;;;;;5071849;28;20480;-47
2024/01/22 05:29:29;;;;;;;1.10;1.00;;;6.30;35.10;;;;;;5071698;28;20185;-49
2024/01/22 05:31:55;;;;;;;2.70;1.17;;;6.30;35.30;;;;;;5071573;28;20193;-44
2024/01/22 05:34:21;;;;;;;4.13;2.43;;;6.30;35.10;;;;;;5071661;28;20412;-45
2024/01/22 05:36:46;;;;;;;1.85;1.30;;;6.30;35.10;;;;;;5071602;28;20172;-45
2024/01/22 05:39:13;;;;;;;12.07;3.23;;;6.40;35.10;;;;;;5071998;28;20563;-46
2024/01/22 05:41:42;;;;;;;1.52;1.15;;;6.40;35.10;;;;;;5071224;28;20678;-47
2024/01/22 05:44:08;;;;;;;4.45;4.07;;;6.40;35.20;;;;;;5071550;28;20212;-45
2024/01/22 05:46:34;;;;;;;2.97;1.60;;;6.50;35.20;;;;;;5071812;28;20180;-43
2024/01/22 05:48:59;;;;;;;1.83;1.73;;;6.60;35.30;;;;;;5071458;28;20177;-46
2024/01/22 05:51:25;;;;;;;1.97;1.70;;;6.60;35.10;;;;;;5071037;28;20211;-48
2024/01/22 05:53:51;;;;;;;1.85;1.50;;;6.60;35.00;;;;;;5071580;28;20192;-46
2024/01/22 05:56:25;;;;;;;2.20;1.53;;;6.60;35.10;;;;;;5071622;28;20265;-47
2024/01/22 05:58:51;;;;;;;2.03;1.67;;;6.60;35.00;;;;;;5072391;28;20419;-44
2024/01/22 06:01:25;;;;;;;1.83;1.73;;;6.60;34.80;;;;;;5072623;28;20613;-46
2024/01/22 06:03:51;;;;;;;7.80;3.65;;;6.60;34.80;;;;;;5072824;28;20169;-48
2024/01/22 06:06:17;;;;;;;1.33;1.23;;;6.60;34.80;;;;;;5071730;28;20173;-44
2024/01/22 06:08:44;;;;;;;1.23;1.13;;;6.60;34.60;;;;;;5071392;28;20184;-44
2024/01/22 06:11:11;;;;;;;2.20;1.30;;;6.60;34.90;;;;;;5071127;28;20258;-48
2024/01/22 06:13:41;;;;;;;3.13;2.88;;;6.70;34.80;;;;;;5073101;28;20165;-44
2024/01/22 06:16:11;;;;;;;1.27;1.02;;;6.70;34.70;;;;;;5075214;28;20661;-45
2024/01/22 06:18:39;;;;;;;1.65;1.35;;;6.70;34.70;;;;;;5075025;28;20184;-48
2024/01/22 06:21:06;;;;;;;8.63;2.28;;;6.70;34.90;;;;;;5074700;28;20250;-48
2024/01/22 06:23:33;;;;;;;1.73;1.13;;;6.70;35.20;;;;;;5074904;28;20276;-43
2024/01/22 06:25:59;;;;;;;5.78;1.50;;;6.70;35.20;;;;;;5075010;28;20181;-49
2024/01/22 06:28:26;;;;;;;2.65;1.55;;;6.70;35.40;;;;;;5074915;28;20230;-48
2024/01/22 06:30:53;;;;;;;1.63;0.75;;;6.80;35.40;;;;;;5074566;28;20221;-45
2024/01/22 06:33:20;;;;;;;1.20;1.08;;;6.80;35.40;;;;;;5075115;28;20230;-44
2024/01/22 06:35:46;;;;;;;2.75;1.50;;;6.90;35.20;;;;;;5074689;28;20635;-48
2024/01/22 06:38:12;;;;;;;9.57;1.53;;;6.90;35.50;;;;;;5075049;28;20184;-43
2024/01/22 06:40:38;;;;;;;2.42;2.08;;;7.00;35.50;;;;;;5074243;28;20936;-45
2024/01/22 06:43:04;;;;;;;1.02;0.60;;;7.00;35.60;;;;;;5074578;28;20185;-48
2024/01/22 06:45:30;;;;;;;1.67;1.58;;;7.00;35.90;;;;;;5074499;28;20173;-45
2024/01/22 06:47:56;;;;;;;2.50;1.30;;;7.00;36.00;;;;;;5074865;28;20597;-44
2024/01/22 06:50:22;;;;;;;1.90;1.03;;;7.10;35.90;;;;;;5074090;28;20458;-49
2024/01/22 06:52:49;;;;;;;1.42;0.88;;;7.10;35.90;;;;;;5074583;28;20204;-44
2024/01/22 06:55:15;;;;;;;5.97;2.80;;;7.20;35.90;;;;;;5074587;28;20226;-42
2024/01/22 06:57:41;;;;;;;1.45;1.30;;;7.20;35.90;;;;;;5074435;28;20238;-51
2024/01/22 07:00:08;;;;;;;1.20;1.07;;;7.30;36.20;;;;;;5074251;28;20581;-46
2024/01/22 07:02:35;;;;;;;5.38;3.70;;;7.30;36.30;;;;;;5074044;28;20489;-45
2024/01/22 07:05:01;;;;;;;0.90;0.60;;;7.40;36.10;;;;;;5074183;28;20280;-46
2024/01/22 07:07:27;;;;;;;1.45;1.10;;;7.50;36.10;;;;;;5074342;28;20185;-47
2024/01/22 07:09:53;;;;;;;1.60;1.23;;;7.50;36.30;;;;;;5074164;28;20204;-43
2024/01/22 07:12:20;;;;;;;3.05;0.93;;;7.50;36.60;;;;;;5073900;28;20438;-45
2024/01/22 07:14:46;;;;;;;1.60;1.35;;;7.50;36.60;;;;;;5074005;28;20230;-46
2024/01/22 07:17:15;;;;;;;3.85;3.13;;;7.60;36.40;;;;;;5074049;28;20562;-44
2024/01/22 07:19:41;;;;;;;1.25;1.15;;;7.70;36.30;;;;;;5073939;28;20174;-45
2024/01/22 07:22:07;;;;;;;2.67;1.92;;;7.80;36.10;;;;;;5074139;28;20207;-47
2024/01/22 07:24:33;;;;;;;1.93;1.37;;;7.80;36.30;;;;;;5073842;28;20200;-44
2024/01/22 07:26:58;;;;;;;1.60;1.37;;;7.80;36.30;;;;;;5073924;28;20229;-46
2024/01/22 07:29:24;;;;;;;1.27;1.17;;;7.90;36.40;;;;;;5074100;28;20180;-44
2024/01/22 07:31:50;;;;;;;4.93;2.53;;;7.90;36.50;;;;;;5074183;28;20216;-42
2024/01/22 07:34:16;;;;;;;1.00;0.80;;;7.90;36.80;;;;;;5073807;28;20414;-46
2024/01/22 07:36:42;;;;;;;3.60;1.23;;;7.90;36.60;;;;;;5073684;28;20177;-47
2024/01/22 07:39:08;;;;;;;1.30;1.03;;;8.00;36.80;;;;;;5073851;28;20523;-43
2024/01/22 07:41:36;;;;;;;1.40;1.30;;;8.00;36.60;;;;;;5073931;28;20443;-45
2024/01/22 07:44:01;;;;;;;1.90;1.80;;;8.00;36.70;;;;;;5073599;28;20173;-48
2024/01/22 07:46:28;;;;;;;2.67;1.37;;;8.00;37.10;;;;;;5073690;28;20680;-44
2024/01/22 07:48:54;;;;;;;1.05;0.88;;;8.00;36.90;;;;;;5073501;28;20181;-46
2024/01/22 07:51:20;;;;;;;3.37;2.20;;;8.10;37.00;;;;;;5073240;28;20284;-46
2024/01/22 07:53:46;;;;;;;0.88;0.52;;;8.20;36.70;;;;;;5073468;28;20161;-46
2024/01/22 07:56:12;;;;;;;1.80;0.57;;;8.20;36.80;;;;;;5073324;28;20231;-45
2024/01/22 07:58:39;;;;;;;4.50;1.50;;;8.30;36.80;;;;;;5073065;28;20203;-47
2024/01/22 08:01:06;;;;;;;1.00;0.85;;;8.40;36.70;;;;;;5072778;28;20760;-45
2024/01/22 08:03:32;;;;;;;2.15;1.20;;;8.50;36.80;;;;;;5073037;28;20229;-44
2024/01/22 08:05:58;;;;;;;2.03;0.53;;;8.50;37.00;;;;;;5073055;28;20185;-45
2024/01/22 08:08:33;;;;;;;1.00;0.65;;;8.60;37.10;;;;;;5072981;28;20411;-47
2024/01/22 08:10:58;;;;;;;5.10;0.95;;;8.70;37.30;;;;;;5072771;28;20715;-44
2024/01/22 08:13:24;;;;;;;7.60;1.83;;;8.70;37.30;;;;;;5072858;28;20244;-49
2024/01/22 08:15:50;;;;;;;1.00;0.90;;;8.80;37.30;;;;;;5072966;28;20192;-44
2024/01/22 08:18:16;;;;;;;2.45;1.70;;;8.90;37.10;;;;;;5072908;28;20248;-47
2024/01/22 08:20:42;;;;;;;1.13;1.02;;;9.00;36.80;;;;;;5072658;28;20197;-46
2024/01/22 08:23:09;;;;;;;2.08;1.45;;;9.10;36.70;;;;;;5072787;28;20661;-43
2024/01/22 08:25:35;;;;;;;1.20;0.60;;;9.20;36.40;;;;;;5071358;28;20189;-49
2024/01/22 08:28:02;;;;;;;3.40;1.97;;;9.20;36.30;;;;;;5072633;28;20272;-44
2024/01/22 08:30:29;;;;;;;1.60;1.45;;;9.30;36.30;;;;;;5072345;28;20474;-45
2024/01/22 08:32:55;;;;;;;1.48;1.35;;;9.30;36.30;;;;;;5072612;28;20265;-46
2024/01/22 08:35:21;;;;;;;2.70;1.33;;;9.30;36.30;;;;;;5072186;28;20204;-44
2024/01/22 08:37:52;;;;;;;3.20;2.10;;;9.30;36.30;;;;;;5072384;28;20403;-45
2024/01/22 08:40:21;;;;;;;1.30;1.08;;;9.30;36.30;;;;;;5072140;28;20200;-48
2024/01/22 08:42:52;;;;;;;1.42;1.15;;;9.40;36.30;;;;;;5072373;28;20230;-49
2024/01/22 08:45:18;;;;;;;4.47;2.35;;;9.40;36.10;;;;;;5080618;28;20184;-48
2024/01/22 08:47:45;;;;;;;1.48;1.02;;;9.50;36.10;;;;;;5072399;28;20192;-47
2024/01/22 08:50:15;;;;;;;0.90;0.60;;;9.50;36.30;;;;;;5072339;28;20213;-45
2024/01/22 08:52:45;;;;;;;1.73;1.60;;;9.50;36.40;;;;;;5071884;28;20196;-45
2024/01/22 08:55:11;;;;;;;1.15;0.85;;;9.50;36.30;;;;;;5072401;28;20177;-46
2024/01/22 08:57:37;;;;;;;2.37;2.17;;;9.50;36.20;;;;;;5072340;28;20177;-44
2024/01/22 09:00:10;;;;;;;1.83;0.88;;;9.50;36.40;;;;;;5072240;28;20814;-45
2024/01/22 09:02:39;;;;;;;2.17;1.30;;;9.50;36.40;;;;;;5071923;28;20208;-48
2024/01/22 09:05:15;;;;;;;2.47;1.45;;;9.50;36.40;;;;;;5071972;28;20180;-44
2024/01/22 09:07:41;;;;;;;1.25;1.15;;;9.40;36.00;;;;;;5072284;28;20572;-41
2024/01/22 09:10:07;;;;;;;3.30;1.85;;;9.40;35.60;;;;;;5072074;28;20279;-49
2024/01/22 09:12:34;;;;;;;1.75;0.68;;;9.30;35.50;;;;;;5071776;28;20331;-44
2024/01/22 09:15:01;;;;;;;0.80;0.30;;;9.40;35.30;;;;;;5072037;28;20641;-47
2024/01/22 09:17:27;;;;;;;4.63;1.35;;;9.30;35.50;;;;;;5071833;28;20177;-49
2024/01/22 09:19:53;;;;;;;1.77;1.67;;;9.30;34.80;;;;;;5077218;28;20176;-43
2024/01/22 09:22:19;;;;;;;0.97;0.60;;;9.30;34.50;;;;;;5083151;28;20691;-44
2024/01/22 09:24:45;;;;;;;2.90;0.97;;;9.40;34.50;;;;;;5071920;28;20419;-46
2024/01/22 09:27:11;;;;;;;1.17;0.50;;;9.30;33.60;;;;;;5072056;28;20547;-44
2024/01/22 09:29:37;;;;;;;1.10;0.80;;;9.30;33.50;;;;;;5071794;28;20192;-43
2024/01/22 09:32:03;;;;;;;0.90;0.50;;;9.20;33.80;;;;;;5071520;28;20189;-48
2024/01/22 09:34:29;;;;;;;6.25;0.95;;;9.10;33.50;;;;;;5071682;28;20404;-49
2024/01/22 09:36:55;;;;;;;2.20;0.60;;;9.10;33.70;;;;;;5071756;28;20181;-44
2024/01/22 09:39:20;;;;;;;1.70;0.60;;;9.00;33.70;;;;;;5071891;28;20454;-45
2024/01/22 09:41:49;;;;;;;0.90;0.40;;;9.00;33.90;;;;;;5071446;28;21115;-46
2024/01/22 09:44:16;;;;;;;1.85;0.85;;;9.00;34.00;;;;;;5071751;28;20180;-43
2024/01/22 09:46:42;;;;;;;4.22;2.78;;;9.00;34.10;;;;;;5071440;28;20692;-49
2024/01/22 09:49:08;;;;;;;1.10;0.60;;;8.90;34.70;;;;;;5074366;28;20204;-43
2024/01/22 09:51:34;;;;;;;1.38;1.10;;;9.00;35.20;;;;;;5075503;28;20491;-48
2024/01/22 09:54:07;;;;;;;1.15;1.00;;;8.80;35.70;;;;;;5076193;28;20602;-48
2024/01/22 09:56:36;;;;;;;2.22;1.33;;;8.70;36.30;;;;;;5076427;28;20549;-45
2024/01/22 09:59:12;;;;;;;2.70;1.33;;;8.70;36.70;;;;;;5076424;28;20185;-44
2024/01/22 10:01:38;;;;;;;3.70;1.40;;;8.70;36.80;;;;;;5075308;28;20204;-45
2024/01/22 10:04:05;;;;;;;1.17;0.90;;;8.70;36.90;;;;;;5075593;28;20254;-47
2024/01/22 10:06:33;;;;;;;0.80;0.40;;;8.70;37.20;;;;;;5075545;28;20185;-44
2024/01/22 10:08:59;;;;;;;4.55;1.67;;;8.70;37.30;;;;;;5075481;28;20188;-45
2024/01/22 10:11:25;;;;;;;1.60;0.97;;;8.60;37.40;;;;;;5075030;28;20237;-50
2024/01/22 10:13:51;;;;;;;1.35;0.73;;;8.50;37.60;;;;;;5079622;28;20265;-43
2024/01/22 10:16:17;;;;;;;1.30;1.00;;;8.50;37.70;;;;;;5079318;28;20223;-50
2024/01/22 10:19:10;;;;;;;3.90;1.07;;;8.50;37.90;;;;;;5075374;28;20490;-44
2024/01/22 10:21:37;;;;;;;1.02;0.68;;;8.50;38.00;;;;;;5074959;28;20205;-44
2024/01/22 10:24:07;;;;;;;1.65;1.30;;;8.50;38.10;;;;;;5075086;28;20231;-45
2024/01/22 10:26:34;;;;;;;1.98;1.67;;;8.60;38.00;;;;;;5074941;28;20824;-48
2024/01/22 10:29:22;;;;;;;1.00;0.60;;;8.60;37.90;;;;;;5075140;28;20278;-44
2024/01/22 10:32:00;;;;;;;1.10;0.70;;;8.60;37.90;;;;;;5086993;28;20208;-52
2024/01/22 10:34:28;;;;;;;0.93;0.63;;;8.60;38.10;;;;;;5094936;28;20542;-46
2024/01/22 10:37:07;;;;;;;2.35;1.15;;;8.70;38.00;;;;;;5094978;28;20204;-48
2024/01/22 10:39:41;;;;;;;1.00;0.50;;;8.90;37.60;;;;;;5094895;28;20542;-43
2024/01/22 10:42:14;;;;;;;1.13;1.02;;;9.00;37.40;;;;;;5093589;28;20204;-46
2024/01/22 10:44:46;;;;;;;3.45;1.33;;;9.10;37.30;;;;;;5093782;28;20646;-47
2024/01/22 10:47:15;;;;;;;0.82;0.35;;;9.10;37.20;;;;;;5093747;28;20184;-42
2024/01/22 10:49:45;;;;;;;2.35;1.75;;;9.10;37.00;;;;;;5093431;28;20806;-49
2024/01/22 10:52:11;;;;;;;0.90;0.50;;;9.20;36.90;;;;;;5093546;28;20189;-48
2024/01/22 10:54:38;;;;;;;1.03;0.60;;;9.20;36.60;;;;;;5093528;28;20200;-43
2024/01/22 10:57:09;;;;;;;1.05;0.68;;;9.30;36.70;;;;;;5093571;28;20414;-45
2024/01/22 10:59:37;;;;;;;1.55;1.20;;;9.30;36.60;;;;;;5091798;28;20176;-51
2024/01/22 11:02:04;;;;;;;5.32;2.38;;;9.30;36.50;;;;;;5093097;28;20202;-45
2024/01/22 11:04:37;;;;;;;1.40;1.20;;;9.40;36.40;;;;;;5093483;28;20200;-45
2024/01/22 11:07:05;;;;;;;1.17;0.80;;;9.30;36.40;;;;;;5093557;28;20263;-49
2024/01/22 11:09:32;;;;;;;1.98;1.30;;;9.40;36.60;;;;;;5093379;28;20511;-45
2024/01/22 11:12:21;;;;;;;2.75;0.50;;;9.40;37.00;;;;;;5092973;28;20215;-49
2024/01/22 11:14:47;;;;;;;1.00;0.70;;;9.50;37.10;;;;;;5093468;28;20172;-48
2024/01/22 11:17:15;;;;;;;1.25;0.80;;;9.50;37.80;;;;;;5093376;28;20256;-43
2024/01/22 11:19:40;;;;;;;2.95;1.15;;;9.60;37.80;;;;;;5093131;28;20181;-52
2024/01/22 11:22:21;;;;;;;1.00;0.83;;;9.60;38.00;;;;;;5093043;28;20271;-46
2024/01/22 11:25:09;;;;;;;1.75;1.42;;;9.60;38.10;;;;;;5093237;28;20391;-47
2024/01/22 11:27:39;;;;;;;0.90;0.60;;;9.60;38.60;;;;;;5093023;28;20216;-45
2024/01/22 11:30:20;;;;;;;1.48;0.93;;;9.60;38.80;;;;;;5092849;28;20287;-50
2024/01/22 11:32:46;;;;;;;1.25;0.93;;;9.70;37.30;;;;;;5093029;28;20192;-44
2024/01/22 11:35:12;;;;;;;2.00;1.60;;;9.60;36.90;;;;;;5092819;28;20574;-49
2024/01/22 11:37:37;;;;;;;2.67;1.83;;;9.60;36.80;;;;;;5092844;28;20414;-45
2024/01/22 11:40:07;;;;;;;12.45;1.90;;;9.60;36.70;;;;;;5046750;28;1314398;-45
2024/01/22 11:42:34;;;;;;;1.65;0.85;;;9.60;36.80;;;;;;5093646;28;20212;-44
2024/01/22 11:45:11;;;;;;;1.15;0.85;;;9.50;36.90;;;;;;5093688;28;20184;-48
2024/01/22 11:47:41;;;;;;;1.58;0.98;;;9.30;37.00;;;;;;5093583;28;20180;-45
2024/01/22 11:50:07;;;;;;;1.05;0.60;;;9.30;37.20;;;;;;5093816;28;20215;-45
2024/01/22 11:52:35;;;;;;;11.93;1.23;;;9.30;37.10;;;;;;5093312;28;20211;-47
2024/01/22 11:55:03;;;;;;;1.30;0.60;;;9.30;37.00;;;;;;5093612;28;20180;-50
2024/01/22 11:57:31;;;;;;;1.40;1.30;;;9.30;37.10;;;;;;5093411;28;20168;-45
2024/01/22 11:59:58;;;;;;;1.58;0.82;;;9.30;36.90;;;;;;5093405;28;20176;-45
2024/01/22 12:02:24;;;;;;;2.30;1.00;;;9.40;36.90;;;;;;5093053;28;20202;-45
2024/01/22 12:05:18;;;;;;;1.90;0.93;;;9.40;36.90;;;;;;5093340;28;20263;-45
2024/01/22 12:07:49;;;;;;;1.33;1.20;;;9.50;36.90;;;;;;5093039;28;20415;-49
2024/01/22 12:10:20;;;;;;;1.42;0.68;;;9.50;36.70;;;;;;5092570;28;20873;-45
2024/01/22 12:12:57;;;;;;;0.80;0.30;;;9.70;36.70;;;;;;5092886;28;20539;-44
2024/01/22 12:15:24;;;;;;;2.13;1.45;;;9.80;36.40;;;;;;5093046;28;20530;-46
2024/01/22 12:17:51;;;;;;;4.15;0.80;;;9.90;36.50;;;;;;5093030;28;20172;-48
2024/01/22 12:20:18;;;;;;;1.35;0.45;;;10.00;36.50;;;;;;5093072;28;20185;-44
2024/01/22 12:22:44;;;;;;;1.98;1.10;;;10.00;36.50;;;;;;5092832;28;20179;-45
2024/01/22 12:25:12;;;;;;;2.00;0.90;;;10.10;36.50;;;;;;5092893;28;20184;-49
2024/01/22 12:27:38;;;;;;;1.10;0.55;;;10.20;36.70;;;;;;5092980;28;20554;-48
2024/01/22 12:30:09;;;;;;;0.88;0.47;;;10.40;40.20;;;;;;5092819;28;20214;-45
2024/01/22 12:32:36;;;;;;;1.00;0.60;;;10.70;43.40;;;;;;5092494;28;20196;-48
2024/01/22 12:35:02;;;;;;;0.80;0.25;;;11.20;43.10;;;;;;5092776;28;20180;-45
2024/01/22 12:37:34;;;;;;;0.90;0.30;;;11.60;42.60;;;;;;5092758;28;20187;-45
2024/01/22 12:40:06;;;;;;;13.68;1.17;;;12.00;41.60;;;;;;5092544;28;20177;-49
2024/01/22 12:42:32;;;;;;;0.95;0.50;;;12.50;40.20;;;;;;5092450;28;20196;-45
2024/01/22 12:44:59;;;;;;;2.25;0.52;;;12.80;40.00;;;;;;5092565;28;20661;-46
2024/01/22 12:47:31;;;;;;;1.00;0.50;;;13.00;39.40;;;;;;5092584;28;20267;-44
2024/01/22 12:49:57;;;;;;;1.17;0.95;;;13.10;38.70;;;;;;5092500;28;20661;-47
2024/01/22 12:52:23;;;;;;;1.83;0.90;;;13.20;38.50;;;;;;5092133;28;20215;-48
2024/01/22 12:54:49;;;;;;;2.23;1.20;;;13.20;36.10;;;;;;5092367;28;20172;-45